North Grafton, Massachusetts
Current Conditions -  °F | °C
As of 8:17 AM on Sunday 23 Nov 2014 (Local Time) from KORH Reporting Station
Broken Clouds Broken Clouds  
Wind Chill: 33°   Ceiling: 2900
Heat Index: 39°   Visibility: 10mi
Dew Point: 26°   Wind: 8mph
Humidity: 60%   Direction: 230°SW
Pressure: 30.12"   Gusts: NA
Location:  42.23°N, 71.71°W
Report Text: KORH 231317Z 23007KT 10SM BKN029 BKN041 BKN110 04/M03 A3012 RMK AO2 T00391033 $
Loading
Personal Weather Stations






























Interactive Weather Map New forecast layout! Learn more

10-Day Weather Forecast

Advertisements
Track Severe Weather on mobile